• Join FlightAware (Why Join?)
  • Login
  • US Flag 
Gobble Gobble! 
07:17AM EST


 

Airport Tracker/Info


-or-


 

Live Flight TrackerFlight Track Log ✈ BJS265 ✈ 29-Aug-2013 ✈ KLBF - KADS

Flight Track Log - Related Links

Times and Time Zones

All times are in EDT time to prevent confusion due to time zone crossing. See the BJS265 flight status page for this flight to view local times or setup timezone preferences in your user account.

Time Position Orientation Groundspeed Altitude Reporting Facility
EDT Latitude Longitude Course Direction KTS MPH feet Rate Location/Type
05:35PM 41.1144 -100.6589 158° South 186 214 3,500  Level Denver Center
05:36PM 41.0669 -100.6494 171° South 206 237 6,900 3,540 Climbing Denver Center
05:37PM 41.0006 -100.6636 189° South 228 262 10,900 3,300 Climbing Denver Center
05:38PM 40.9364 -100.6269 157° South 254 292 13,800 2,580 Climbing Denver Center
05:39PM 40.5177 -100.3636 158° South  Level Estimated
05:39PM 40.8556 -100.5783 156° South 317 365 16,300  Level Denver Center
05:40PM 40.4162 -100.3108 158° South  Level Estimated
05:40PM 40.7525 -100.5189 156° South 352 405 19,600  Level Denver Center
05:41PM 40.3147 -100.2582 158° South  Level Estimated
05:41PM 40.6600 -100.4653 156° South 369 425 22,200  Level Denver Center
05:42PM 40.5483 -100.4000 156° South 389 448 25,200 2,460 Climbing Denver Center
05:43PM 40.4497 -100.3436 156° South 400 460 27,400 2,400 Climbing Denver Center
05:44PM 40.3319 -100.2756 156° South 412 474 30,300 2,520 Climbing Denver Center
05:45PM 40.2317 -100.2175 156° South 411 473 32,700 1,980 Climbing Denver Center
05:46PM 40.1300 -100.1592 156° South 414 476 34,400 1,560 Climbing Denver Center
05:47PM 40.0211 -100.0969 156° South 428 493 36,000 1,740 Climbing Denver Center
05:49PM 39.8864 -100.0217 157° South 438 504 38,100 1,740 Climbing Denver Center
05:50PM 39.7722 -99.9567 156° South 446 513 39,600 1,380 Climbing Denver Center
05:51PM 39.6556 -99.8892 156° South 455 524 41,000 660 Climbing Denver Center
05:52PM 39.5358 -99.8219 157° South 466 536 41,000  Level Denver Center
05:53PM 39.4086 -99.7492 156° South 479 551 41,000  Level Denver Center
05:54PM 39.2767 -99.6753 157° South 464 534 41,000  Level Denver Center
05:55PM 39.1594 -99.6097 157° South 462 532 41,000  Level Denver Center
05:56PM 39.0444 -99.5544 160° South 465 535 41,000  Level Kansas City Center
05:57PM 38.9225 -99.4981 160° South 466 536 41,000  Level Kansas City Center
05:58PM 38.8000 -99.4397 160° South 469 540 41,000  Level Kansas City Center
05:59PM 38.6756 -99.3819 160° South 474 545 41,000  Level Kansas City Center
06:00PM 38.5522 -99.3231 160° South 473 544 41,000  Level Kansas City Center
06:01PM 38.4064 -99.2558 160° South 468 539 41,000  Level Kansas City Center
06:02PM 38.2833 -99.1997 160° South 469 540 41,000  Level Kansas City Center
06:03PM 38.1608 -99.1433 160° South 469 540 41,000  Level Kansas City Center
06:04PM 38.0397 -99.0867 160° South 467 537 41,000  Level Kansas City Center
06:05PM 37.9172 -99.0311 160° South 468 539 41,000  Level Kansas City Center
06:06PM 37.7681 -98.9642 160° South 473 544 41,000  Level Kansas City Center
06:07PM 37.6453 -98.9078 160° South 472 543 41,000  Level Kansas City Center
06:08PM 37.5272 -98.8547 160° South 461 531 41,000  Level Kansas City Center
06:09PM 37.4036 -98.7986 160° South 467 537 41,000  Level Kansas City Center
06:10PM 37.2811 -98.7444 161° South 469 540 41,000  Level Kansas City Center
06:11PM 37.1558 -98.6864 160° South 474 545 41,000  Level Kansas City Center
06:12PM 37.0142 -98.6214 160° South 455 524 41,000  Level Kansas City Center
06:13PM 36.8942 -98.5686 161° South 451 519 41,000  Level Kansas City Center
06:14PM 36.7736 -98.5144 160° South 455 524 41,000  Level Kansas City Center
06:15PM 36.6511 -98.4608 161° South 460 529 41,000  Level Kansas City Center
06:16PM 36.5303 -98.4067 160° South 460 529 41,000  Level Kansas City Center
06:17PM 36.4114 -98.3544 161° South 454 522 41,000  Level Kansas City Center
06:18PM 36.2886 -98.3011 161° South 461 531 41,000  Level Kansas City Center
06:19PM 36.1419 -98.2358 160° South 463 533 41,000  Level Kansas City Center
06:21PM 36.0203 -98.1825 160° South 461 531 41,000  Level Kansas City Center
06:22PM 35.8975 -98.1303 161° South 463 533 41,000  Level Kansas City Center
06:22PM 35.8275 -98.0997 161° South 463 533 41,000  Level Fort Worth Center
06:23PM 35.7069 -98.0450 160° South 463 533 41,000  Level Fort Worth Center
06:24PM 35.5861 -98.0031 164° South 463 533 41,000  Level Fort Worth Center
06:25PM 35.4656 -97.9514 161° South 458 527 41,000  Level Fort Worth Center
06:26PM 35.3447 -97.9022 162° South 458 527 41,000  Level Fort Worth Center
06:27PM 35.2239 -97.8506 161° South 463 533 41,000 -720 Level Fort Worth Center
06:28PM 35.1053 -97.7967 160° South 463 533 39,600 -1,920 Descending Fort Worth Center
06:29PM 34.9825 -97.7481 162° South 458 527 37,200 -2,400 Descending Fort Worth Center
06:30PM 34.8553 -97.6919 160° South 463 533 34,800 -2,460 Descending Fort Worth Center
06:31PM 34.7322 -97.6408 161° South 468 539 32,300 -2,460 Descending Fort Worth Center
06:32PM 34.6114 -97.5900 161° South 463 533 29,900 -2,400 Descending Fort Worth Center
06:33PM 34.4906 -97.5394 161° South 463 533 27,600 -2,400 Descending Fort Worth Center
06:34PM 34.3694 -97.4889 161° South 463 533 25,200 -1,800 Descending Fort Worth Center
06:35PM 34.2483 -97.4914 181° South 436 502 24,000 -1,080 Descending Fort Worth Center
06:36PM 34.1317 -97.5189 191° South 429 494 23,100 -1,560 Descending Fort Worth Center
06:37PM 34.0083 -97.5111 177° South 429 494 20,900 -2,160 Descending Fort Worth Center
06:38PM 33.8894 -97.5036 177° South 429 494 18,800 -1,980 Descending Fort Worth Center
06:39PM 33.7853 -97.4933 175° South 429 494 17,000 -1,920 Descending Fort Worth Center
06:40PM 33.6767 -97.4858 177° South 415 478 15,000 -2,040 Descending Fort Worth Center
06:41PM 33.5597 -97.4758 176° South 392 451 13,000 -1,920 Descending Fort Worth Center
06:42PM 33.4783 -97.4683 176° South 354 407 11,200 -2,220 Descending Fort Worth Center
06:43PM 33.3969 -97.4158 152° Southeast 306 352 8,600 -2,520 Descending Fort Worth Center
06:44PM 33.3667 -97.3333 114° Southeast 281 323 6,400 -2,160 Descending Dallas / Fort Worth TRACON
06:45PM 33.3667 -97.2500 90° East 272 313 4,500 -1,620 Descending Dallas / Fort Worth TRACON
06:46PM 33.3667 -97.1833 90° East 244 281 3,400 -840 Descending Dallas / Fort Worth TRACON
06:47PM 33.3500 -97.1000 103° East 212 244 3,000 -300 Descending Dallas / Fort Worth TRACON
06:48PM 33.3333 -97.0333 107° East 205 236 2,900  Descending Dallas / Fort Worth TRACON
06:49PM 33.3167 -96.9833 112° Southeast 182 209 3,000  Climbing Dallas / Fort Worth TRACON
06:50PM 33.2583 -96.9664 166° South 169 194 3,000 -420 Level Fort Worth Center
06:51PM 33.2061 -96.9442 160° South 180 207 2,100 -540 Descending Fort Worth Center
06:52PM 33.1622 -96.9247 160° South 186 214 2,000 -60 Descending Fort Worth Center
06:53PM 33.1167 -96.9000 156° South 175 201 2,000  Level Dallas / Fort Worth TRACON
06:54PM 33.0667 -96.8833 164° South 174 200 2,000 -120 Level Dallas / Fort Worth TRACON
06:55PM 33.0333 -96.8667 157° South 174 200 1,800 -600 Descending Dallas / Fort Worth TRACON
06:56PM 33.0000 -96.8500 157° South 141 162 900 -840 Descending Dallas / Fort Worth TRACON
06:58PM 32.9667 -96.8333 149° Southeast  Level FlightAware Approximate
07:05PM 32.9686 -96.8364 149° Southeast  Level Estimated